Time;durP1;ratioP1;P1;durP2;ratioP2;P2;SDS_P1;SDS_P2;PMS_P1;PMS_P2;Temp;Humidity;BMP_temperature;BMP_pressure;BME280_temperature;BME280_humidity;BME280_pressure;Samples;Min_cycle;Max_cycle;Signal;HPM_P1;HPM_P2
2020/12/21 00:01:16;;;;;;;;;;;8.00;79.70;;;;;;4756797;30;19949;-82
2020/12/21 00:03:41;;;;;;;;;;;8.00;79.70;;;;;;4772949;30;19917;-82
2020/12/21 00:06:09;;;;;;;;;;;8.00;79.70;;;;;;4788668;30;20441;-82
2020/12/21 00:08:35;;;;;;;;;;;8.00;79.70;;;;;;4772913;30;19975;-82
2020/12/21 00:11:00;;;;;;;;;;;8.00;79.70;;;;;;4772449;30;19921;-82
2020/12/21 00:13:28;;;;;;;;;;;8.00;79.70;;;;;;4772728;30;20004;-82
2020/12/21 00:15:53;;;;;;;;;;;7.90;79.60;;;;;;4757744;30;20322;-82
2020/12/21 00:18:19;;;;;;;;;;;8.00;79.70;;;;;;4772559;30;19921;-82
2020/12/21 00:20:44;;;;;;;;;;;7.90;79.70;;;;;;4772325;30;20393;-82
2020/12/21 00:23:10;;;;;;;;;;;7.90;79.60;;;;;;4772302;30;19918;-82
2020/12/21 00:25:36;;;;;;;;;;;7.90;79.70;;;;;;4757716;30;20017;-82
2020/12/21 00:28:01;;;;;;;;;;;7.90;79.70;;;;;;4788328;30;20311;-82
2020/12/21 00:30:27;;;;;;;;;;;7.90;79.70;;;;;;4771998;30;19992;-82
2020/12/21 00:32:52;;;;;;;;;;;7.90;79.70;;;;;;4772295;30;19996;-82
2020/12/21 00:35:18;;;;;;;;;;;7.80;79.70;;;;;;4788548;30;19926;-82
2020/12/21 00:37:43;;;;;;;;;;;7.80;79.70;;;;;;4764422;30;19921;-82
2020/12/21 00:40:09;;;;;;;;;;;7.80;79.70;;;;;;4739419;30;19933;-82
2020/12/21 00:42:34;;;;;;;;;;;7.80;79.70;;;;;;4739784;30;19918;-82
2020/12/21 00:45:00;;;;;;;;;;;7.80;79.70;;;;;;4754207;30;19926;-82
2020/12/21 00:47:25;;;;;;;;;;;7.80;79.80;;;;;;4770482;30;19918;-82
2020/12/21 00:49:51;;;;;;;;;;;7.70;79.70;;;;;;4753936;30;19922;-82
2020/12/21 00:52:16;;;;;;;;;;;7.70;79.70;;;;;;4765742;30;20361;-82
2020/12/21 00:54:42;;;;;;;;;;;7.70;79.70;;;;;;4772031;30;19918;-82
2020/12/21 00:57:07;;;;;;;;;;;7.70;79.70;;;;;;4771679;30;19917;-82
2020/12/21 00:59:34;;;;;;;;;;;7.70;79.80;;;;;;4770813;30;19918;-82
2020/12/21 01:01:59;;;;;;;;;;;7.60;79.70;;;;;;4753723;30;19929;-82
2020/12/21 01:04:25;;;;;;;;;;;7.60;79.80;;;;;;4770244;30;19913;-82
2020/12/21 01:06:56;;;;;;;;;;;7.60;79.80;;;;;;4753636;30;20020;-82
2020/12/21 01:09:22;;;;;;;;;;;7.60;79.80;;;;;;4754046;30;20383;-82
2020/12/21 01:11:47;;;;;;;;;;;7.60;79.80;;;;;;4739120;30;19922;-82
2020/12/21 01:14:12;;;;;;;;;;;7.60;79.90;;;;;;4754029;30;19918;-82
2020/12/21 01:16:38;;;;;;;;;;;7.60;79.90;;;;;;4753898;30;19918;-82
2020/12/21 01:19:03;;;;;;;;;;;7.50;79.90;;;;;;4769542;30;20353;-82
2020/12/21 01:21:30;;;;;;;;;;;7.50;79.90;;;;;;4753849;30;19922;-81
2020/12/21 01:23:56;;;;;;;;;;;7.50;79.90;;;;;;4753399;30;20354;-82
2020/12/21 01:26:22;;;;;;;;;;;7.50;79.90;;;;;;4739007;30;20013;-82
2020/12/21 01:28:48;;;;;;;;;;;7.50;79.90;;;;;;4769537;30;19921;-81
2020/12/21 01:31:14;;;;;;;;;;;7.50;80.00;;;;;;4753691;30;19918;-81
2020/12/21 01:33:39;;;;;;;;;;;7.50;80.00;;;;;;4753743;30;20265;-81
2020/12/21 01:36:05;;;;;;;;;;;7.50;80.10;;;;;;4753446;30;19975;-81
2020/12/21 01:38:30;;;;;;;;;;;7.50;80.10;;;;;;4738812;30;19930;-80
2020/12/21 01:40:56;;;;;;;;;;;7.50;80.10;;;;;;4752679;30;20357;-81
2020/12/21 01:43:21;;;;;;;;;;;7.40;80.10;;;;;;4753541;30;19972;-81
2020/12/21 01:45:47;;;;;;;;;;;7.40;80.10;;;;;;4753618;30;20063;-81
2020/12/21 01:48:12;;;;;;;;;;;7.40;80.10;;;;;;4769454;30;19925;-81
2020/12/21 01:50:38;;;;;;;;;;;7.40;80.10;;;;;;4753330;30;19937;-81
2020/12/21 01:53:09;;;;;;;;;;;7.40;80.10;;;;;;4770358;30;19925;-81
2020/12/21 01:55:35;;;;;;;;;;;7.40;80.10;;;;;;4769476;30;19922;-81
2020/12/21 01:58:01;;;;;;;;;;;7.40;80.10;;;;;;4769054;30;19920;-81
2020/12/21 02:00:29;;;;;;;;;;;7.40;80.10;;;;;;4766300;30;20023;-81
2020/12/21 02:02:55;;;;;;;;;;;7.40;80.10;;;;;;4786939;30;20004;-81
2020/12/21 02:05:20;;;;;;;;;;;7.30;80.10;;;;;;4771159;30;20021;-81
2020/12/21 02:07:46;;;;;;;;;;;7.40;80.20;;;;;;4770904;30;20368;-81
2020/12/21 02:10:12;;;;;;;;;;;7.30;80.10;;;;;;4770682;30;19930;-81
2020/12/21 02:12:37;;;;;;;;;;;7.30;80.10;;;;;;4786965;30;19925;-81
2020/12/21 02:15:03;;;;;;;;;;;7.30;80.10;;;;;;4768369;30;19917;-81
2020/12/21 02:17:28;;;;;;;;;;;7.30;80.10;;;;;;4744819;30;19922;-81
2020/12/21 02:19:54;;;;;;;;;;;7.30;80.10;;;;;;4770397;30;19914;-81
2020/12/21 02:22:23;;;;;;;;;;;7.30;80.10;;;;;;4786635;30;20362;-81
2020/12/21 02:24:48;;;;;;;;;;;7.30;80.10;;;;;;4770723;30;19918;-81
2020/12/21 02:27:14;;;;;;;;;;;7.30;80.10;;;;;;4786466;30;19918;-81
2020/12/21 02:29:39;;;;;;;;;;;7.30;80.10;;;;;;4770548;30;19970;-81
2020/12/21 02:32:05;;;;;;;;;;;7.30;80.10;;;;;;4770230;30;19921;-81
2020/12/21 02:34:30;;;;;;;;;;;7.30;80.10;;;;;;4786817;30;20376;-81
2020/12/21 02:36:56;;;;;;;;;;;7.30;80.10;;;;;;4768852;30;19917;-81
2020/12/21 02:39:22;;;;;;;;;;;7.30;80.10;;;;;;4770345;30;19971;-81
2020/12/21 02:41:48;;;;;;;;;;;7.30;80.20;;;;;;4770339;30;19924;-81
2020/12/21 02:44:14;;;;;;;;;;;7.30;80.20;;;;;;4770214;30;19913;-81
2020/12/21 02:46:41;;;;;;;;;;;7.20;80.10;;;;;;4786656;30;19918;-81
2020/12/21 02:49:07;;;;;;;;;;;7.20;80.20;;;;;;4786171;30;20024;-81
2020/12/21 02:51:32;;;;;;;;;;;7.20;80.30;;;;;;4786698;30;20020;-81
2020/12/21 02:53:58;;;;;;;;;;;7.20;80.30;;;;;;4769865;30;19917;-81
2020/12/21 02:56:23;;;;;;;;;;;7.20;80.30;;;;;;4773325;30;19918;-81
2020/12/21 02:58:48;;;;;;;;;;;7.20;80.30;;;;;;4752555;30;19949;-81
2020/12/21 03:01:14;;;;;;;;;;;7.10;80.20;;;;;;4737565;30;20354;-81
2020/12/21 03:03:39;;;;;;;;;;;7.10;80.20;;;;;;4768605;30;19921;-81
2020/12/21 03:06:05;;;;;;;;;;;7.10;80.20;;;;;;4762267;30;19925;-81
2020/12/21 03:08:30;;;;;;;;;;;7.10;80.20;;;;;;4755629;30;20032;-81
2020/12/21 03:10:56;;;;;;;;;;;7.10;80.20;;;;;;4786013;30;19922;-81
2020/12/21 03:13:21;;;;;;;;;;;7.10;80.20;;;;;;4770210;30;20012;-81
2020/12/21 03:15:47;;;;;;;;;;;7.10;80.30;;;;;;4755192;30;19922;-81
2020/12/21 03:18:12;;;;;;;;;;;7.10;80.30;;;;;;4754795;30;19928;-81
2020/12/21 03:20:38;;;;;;;;;;;7.10;80.30;;;;;;4786257;29;20171;-81
2020/12/21 03:23:03;;;;;;;;;;;7.10;80.40;;;;;;4786111;30;19918;-81
2020/12/21 03:25:29;;;;;;;;;;;7.10;80.50;;;;;;4770113;30;19982;-81
2020/12/21 03:27:54;;;;;;;;;;;7.10;80.60;;;;;;4754957;30;19921;-81
2020/12/21 03:30:20;;;;;;;;;;;7.10;80.60;;;;;;4755134;30;20288;-81
2020/12/21 03:32:45;;;;;;;;;;;7.10;80.50;;;;;;4755099;30;19925;-81
2020/12/21 03:35:11;;;;;;;;;;;7.00;80.50;;;;;;4761294;30;19914;-81
2020/12/21 03:40:05;;;;;;;;;;;7.00;80.50;;;;;;4766236;30;19934;-84
2020/12/21 03:42:31;;;;;;;;;;;7.00;80.40;;;;;;4752070;30;19918;-84
2020/12/21 03:44:56;;;;;;;;;;;7.00;80.40;;;;;;4751879;30;19925;-84
2020/12/21 03:47:22;;;;;;;;;;;7.00;80.40;;;;;;4768283;30;20013;-84
2020/12/21 03:49:47;;;;;;;;;;;7.00;80.50;;;;;;4752238;30;20381;-84
2020/12/21 03:52:13;;;;;;;;;;;7.00;80.50;;;;;;4736877;30;20009;-84
2020/12/21 03:54:39;;;;;;;;;;;7.00;80.50;;;;;;4767844;30;20186;-84
2020/12/21 03:57:04;;;;;;;;;;;7.00;80.60;;;;;;4737113;30;19965;-84
2020/12/21 03:59:30;;;;;;;;;;;7.00;80.60;;;;;;4768038;30;19968;-84
2020/12/21 04:01:55;;;;;;;;;;;7.00;80.60;;;;;;4751553;30;20369;-82
2020/12/21 04:04:21;;;;;;;;;;;7.00;80.50;;;;;;4752461;30;19925;-82
2020/12/21 04:06:46;;;;;;;;;;;7.00;80.50;;;;;;4740349;30;19926;-82
2020/12/21 04:09:12;;;;;;;;;;;7.00;80.50;;;;;;4739948;30;19980;-82
2020/12/21 04:11:37;;;;;;;;;;;7.00;80.50;;;;;;4754864;30;20364;-82
2020/12/21 04:14:03;;;;;;;;;;;6.90;80.50;;;;;;4754250;30;19918;-82
2020/12/21 04:16:28;;;;;;;;;;;7.00;80.50;;;;;;4754995;30;19922;-84
2020/12/21 04:18:54;;;;;;;;;;;7.00;80.50;;;;;;4740275;30;19925;-84
2020/12/21 04:21:19;;;;;;;;;;;6.90;80.40;;;;;;4748537;30;20035;-84
2020/12/21 04:23:45;;;;;;;;;;;7.00;80.60;;;;;;4737389;30;19927;-82
2020/12/21 04:26:11;;;;;;;;;;;6.90;80.60;;;;;;4732120;30;20304;-82
2020/12/21 04:28:36;;;;;;;;;;;6.90;80.50;;;;;;4744169;30;19972;-82
2020/12/21 04:31:02;;;;;;;;;;;6.90;80.50;;;;;;4744983;30;19918;-82
2020/12/21 04:33:28;;;;;;;;;;;6.90;80.50;;;;;;4746450;30;19917;-82
2020/12/21 04:35:53;;;;;;;;;;;6.90;80.50;;;;;;4734223;30;19922;-82
2020/12/21 04:38:19;;;;;;;;;;;6.90;80.50;;;;;;4735270;30;19938;-82
2020/12/21 04:40:52;;;;;;;;;;;6.90;80.50;;;;;;4760180;30;20281;-82
2020/12/21 04:43:18;;;;;;;;;;;6.90;80.50;;;;;;4760024;30;19935;-82
2020/12/21 04:45:44;;;;;;;;;;;6.90;80.60;;;;;;4729820;30;19922;-82
2020/12/21 04:48:14;;;;;;;;;;;6.90;80.60;;;;;;4737659;30;20278;-82
2020/12/21 04:50:40;;;;;;;;;;;6.90;80.70;;;;;;4760115;30;19929;-82
2020/12/21 04:53:07;;;;;;;;;;;6.90;80.70;;;;;;4752709;30;20337;-82
2020/12/21 04:55:32;;;;;;;;;;;6.90;80.70;;;;;;4755758;30;20395;-83
2020/12/21 04:57:58;;;;;;;;;;;6.90;80.80;;;;;;4759622;30;19922;-84
2020/12/21 05:00:25;;;;;;;;;;;6.90;80.90;;;;;;4757884;30;20292;-84
2020/12/21 05:02:51;;;;;;;;;;;6.90;81.00;;;;;;4745992;30;19964;-84
2020/12/21 05:05:49;;;;;;;;;;;6.90;81.20;;;;;;4747116;30;20013;-84
2020/12/21 05:08:15;;;;;;;;;;;6.90;81.20;;;;;;4731710;30;19919;-85
2020/12/21 05:10:42;;;;;;;;;;;6.90;81.20;;;;;;4737132;30;19984;-84
2020/12/21 05:13:08;;;;;;;;;;;7.00;81.20;;;;;;4739033;30;20005;-84
2020/12/21 05:15:33;;;;;;;;;;;7.00;81.30;;;;;;4753612;30;19973;-85
2020/12/21 05:18:11;;;;;;;;;;;7.00;81.30;;;;;;4739186;30;19926;-85
2020/12/21 05:20:37;;;;;;;;;;;7.00;81.30;;;;;;4754351;30;19922;-85
2020/12/21 05:23:04;;;;;;;;;;;7.00;81.20;;;;;;4753924;30;19972;-84
2020/12/21 05:25:29;;;;;;;;;;;7.00;81.20;;;;;;4735906;30;19922;-84
2020/12/21 05:27:55;;;;;;;;;;;7.00;81.30;;;;;;4736723;30;19933;-85
2020/12/21 05:30:20;;;;;;;;;;;7.00;81.50;;;;;;4751007;30;19980;-85
2020/12/21 05:32:46;;;;;;;;;;;7.00;81.40;;;;;;4736420;30;19922;-84
2020/12/21 05:35:14;;;;;;;;;;;7.00;81.30;;;;;;4736058;30;19918;-85
2020/12/21 05:37:40;;;;;;;;;;;7.10;81.30;;;;;;4736327;30;19926;-84
2020/12/21 05:40:06;;;;;;;;;;;7.10;81.30;;;;;;4721449;30;20017;-84
2020/12/21 05:42:33;;;;;;;;;;;7.10;81.30;;;;;;4736419;30;19972;-84
2020/12/21 05:45:08;;;;;;;;;;;7.10;81.30;;;;;;4735739;30;19941;-83
2020/12/21 05:47:34;;;;;;;;;;;7.10;81.30;;;;;;4735552;30;19918;-83
2020/12/21 05:50:04;;;;;;;;;;;7.10;81.30;;;;;;4735200;30;19926;-83
2020/12/21 05:52:31;;;;;;;;;;;7.10;81.30;;;;;;4753303;30;19957;-83
2020/12/21 05:55:00;;;;;;;;;;;7.10;81.30;;;;;;4753005;30;19926;-83
2020/12/21 05:57:27;;;;;;;;;;;7.10;81.30;;;;;;4769247;30;20232;-83
2020/12/21 05:59:53;;;;;;;;;;;7.10;81.50;;;;;;4752670;30;19971;-83
2020/12/21 06:02:19;;;;;;;;;;;7.10;81.40;;;;;;4753019;30;20522;-81
2020/12/21 06:04:49;;;;;;;;;;;7.20;81.50;;;;;;4769877;30;19921;-81
2020/12/21 06:07:20;;;;;;;;;;;7.20;81.50;;;;;;4729882;30;19926;-83
2020/12/21 06:09:48;;;;;;;;;;;7.20;81.40;;;;;;4746216;30;19914;-83
2020/12/21 06:12:14;;;;;;;;;;;7.20;81.50;;;;;;4761136;30;19918;-83
2020/12/21 06:14:39;;;;;;;;;;;7.20;81.60;;;;;;4760701;30;19917;-83
2020/12/21 06:17:08;;;;;;;;;;;7.20;81.60;;;;;;4745808;30;20380;-83
2020/12/21 06:19:34;;;;;;;;;;;7.20;81.60;;;;;;4766738;30;20379;-82
2020/12/21 06:21:59;;;;;;;;;;;7.20;81.60;;;;;;4754574;30;19930;-83
2020/12/21 06:24:26;;;;;;;;;;;7.20;81.60;;;;;;4758267;30;19924;-82
2020/12/21 06:26:52;;;;;;;;;;;7.30;81.60;;;;;;4772333;30;20399;-82
2020/12/21 06:29:17;;;;;;;;;;;7.30;81.60;;;;;;4753421;30;19929;-82
2020/12/21 06:31:47;;;;;;;;;;;7.30;81.70;;;;;;4767465;30;19922;-84
2020/12/21 06:34:30;;;;;;;;;;;7.30;81.60;;;;;;4767513;30;19996;-84
2020/12/21 06:37:03;;;;;;;;;;;7.30;81.50;;;;;;4751039;30;19918;-86
2020/12/21 06:39:29;;;;;;;;;;;7.30;81.40;;;;;;4746512;30;19926;-83
2020/12/21 06:42:05;;;;;;;;;;;7.30;81.50;;;;;;4763710;30;19932;-84
2020/12/21 06:44:31;;;;;;;;;;;7.30;81.60;;;;;;4752356;30;19914;-85
2020/12/21 06:46:57;;;;;;;;;;;7.40;81.60;;;;;;4752556;30;19917;-85
2020/12/21 06:49:23;;;;;;;;;;;7.30;81.60;;;;;;4764344;30;19928;-84
2020/12/21 06:51:49;;;;;;;;;;;7.40;81.70;;;;;;4768593;30;19969;-84
2020/12/21 06:54:16;;;;;;;;;;;7.40;81.70;;;;;;4735458;30;20338;-83
2020/12/21 06:56:42;;;;;;;;;;;7.40;81.60;;;;;;4759340;30;20404;-84
2020/12/21 06:59:11;;;;;;;;;;;7.40;81.50;;;;;;4758977;30;20032;-84
2020/12/21 07:01:45;;;;;;;;;;;7.40;81.50;;;;;;4751263;30;20295;-82
2020/12/21 07:04:18;;;;;;;;;;;7.40;81.50;;;;;;4767085;30;19971;-83
2020/12/21 07:07:03;;;;;;;;;;;7.40;81.50;;;;;;4768966;30;20012;-84
2020/12/21 07:09:30;;;;;;;;;;;7.50;81.50;;;;;;4754210;30;20293;-83
2020/12/21 07:12:05;;;;;;;;;;;7.50;81.50;;;;;;4763928;30;19925;-83
2020/12/21 07:14:37;;;;;;;;;;;7.50;81.50;;;;;;4737915;30;19968;-83
2020/12/21 07:17:07;;;;;;;;;;;7.50;81.50;;;;;;4750623;30;19918;-83
2020/12/21 07:19:34;;;;;;;;;;;7.50;81.50;;;;;;4751120;30;19918;-83
2020/12/21 07:22:00;;;;;;;;;;;7.60;81.50;;;;;;4752671;30;19918;-83
2020/12/21 07:24:26;;;;;;;;;;;7.50;81.50;;;;;;4743939;30;20425;-83
2020/12/21 07:26:52;;;;;;;;;;;7.50;81.50;;;;;;4762426;30;19930;-83
2020/12/21 07:29:18;;;;;;;;;;;7.60;81.50;;;;;;4766640;30;19925;-83
2020/12/21 07:31:43;;;;;;;;;;;7.60;81.40;;;;;;4751880;30;20373;-83
2020/12/21 07:34:09;;;;;;;;;;;7.60;81.40;;;;;;4766423;30;20008;-83
2020/12/21 07:36:35;;;;;;;;;;;7.60;81.40;;;;;;4737308;30;19967;-83
2020/12/21 07:39:11;;;;;;;;;;;7.60;81.40;;;;;;4754021;30;19945;-83
2020/12/21 07:41:46;;;;;;;;;;;7.60;81.30;;;;;;4771897;30;19957;-83
2020/12/21 07:44:13;;;;;;;;;;;7.60;81.30;;;;;;4737663;30;20373;-83
2020/12/21 07:46:43;;;;;;;;;;;7.70;81.40;;;;;;4753826;30;19914;-83
2020/12/21 07:49:09;;;;;;;;;;;7.70;81.30;;;;;;4737512;30;20377;-83
2020/12/21 07:51:36;;;;;;;;;;;7.70;81.30;;;;;;4758298;30;19925;-83
2020/12/21 07:54:02;;;;;;;;;;;7.80;81.20;;;;;;4770072;30;20424;-86
2020/12/21 07:56:27;;;;;;;;;;;7.80;81.20;;;;;;4762213;30;19919;-86
2020/12/21 07:58:53;;;;;;;;;;;7.80;81.20;;;;;;4765814;30;20353;-86
2020/12/21 08:01:22;;;;;;;;;;;7.80;81.20;;;;;;4769390;30;19918;-86
2020/12/21 08:03:50;;;;;;;;;;;7.80;81.20;;;;;;4769795;30;19941;-85
2020/12/21 08:06:18;;;;;;;;;;;7.80;81.30;;;;;;4769745;30;19914;-85
2020/12/21 08:08:44;;;;;;;;;;;7.80;81.40;;;;;;4740847;30;19918;-86
2020/12/21 08:11:14;;;;;;;;;;;7.80;81.30;;;;;;4740746;30;19987;-86
2020/12/21 08:13:43;;;;;;;;;;;7.90;81.30;;;;;;4766292;30;19918;-85
2020/12/21 08:16:09;;;;;;;;;;;7.90;81.20;;;;;;4768785;30;20424;-86
2020/12/21 08:18:36;;;;;;;;;;;7.90;81.20;;;;;;4761487;30;19943;-86
2020/12/21 08:21:02;;;;;;;;;;;8.00;81.20;;;;;;4769371;30;19914;-86
2020/12/21 08:23:29;;;;;;;;;;;7.90;81.20;;;;;;4754978;30;19917;-84
2020/12/21 08:25:55;;;;;;;;;;;7.90;81.20;;;;;;4750656;30;19918;-85
2020/12/21 08:28:31;;;;;;;;;;;8.00;81.30;;;;;;4754238;30;20012;-86
2020/12/21 08:31:06;;;;;;;;;;;8.00;81.20;;;;;;4751868;30;19922;-85
2020/12/21 08:33:32;;;;;;;;;;;8.00;81.20;;;;;;4770709;30;19946;-86
2020/12/21 08:36:14;;;;;;;;;;;8.00;81.20;;;;;;4736461;30;20015;-86
2020/12/21 08:38:39;;;;;;;;;;;8.00;81.20;;;;;;4748833;30;19988;-86
2020/12/21 08:41:05;;;;;;;;;;;8.10;81.20;;;;;;4739102;30;19922;-84
2020/12/21 08:43:30;;;;;;;;;;;8.10;81.30;;;;;;4739487;30;20022;-85
2020/12/21 08:45:55;;;;;;;;;;;8.10;81.30;;;;;;4744323;30;19922;-84
2020/12/21 08:48:21;;;;;;;;;;;8.10;81.30;;;;;;4736003;30;19926;-85
2020/12/21 08:50:46;;;;;;;;;;;8.10;81.20;;;;;;4754107;30;20447;-86
2020/12/21 08:53:12;;;;;;;;;;;8.20;81.20;;;;;;4754208;30;19929;-84
2020/12/21 08:55:37;;;;;;;;;;;8.20;81.20;;;;;;4750826;30;19925;-85
2020/12/21 08:58:03;;;;;;;;;;;8.20;81.30;;;;;;4732716;30;20366;-85
2020/12/21 09:00:29;;;;;;;;;;;8.20;81.30;;;;;;4732789;30;19922;-84
2020/12/21 09:02:54;;;;;;;;;;;8.20;81.20;;;;;;4722169;30;19941;-84
2020/12/21 09:05:20;;;;;;;;;;;8.20;81.30;;;;;;4736271;30;19915;-84
2020/12/21 09:07:45;;;;;;;;;;;8.30;81.20;;;;;;4736331;30;19969;-85
2020/12/21 09:10:14;;;;;;;;;;;8.20;81.20;;;;;;4736480;30;20324;-85
2020/12/21 09:16:10;;;;;;;;;;;8.30;81.20;;;;;;4751046;30;20376;-84
2020/12/21 09:19:00;;;;;;;;;;;8.30;81.20;;;;;;4739977;30;19918;-84
2020/12/21 09:21:57;;;;;;;;;;;;;;;;;;;;;
2020/12/21 09:24:17;;;;;;;;;;;8.30;81.10;;;;;;4734713;30;20383;-85
2020/12/21 09:26:43;;;;;;;;;;;8.40;81.20;;;;;;4725304;30;20029;-84
2020/12/21 09:29:08;;;;;;;;;;;8.40;81.30;;;;;;4715216;30;20370;-84
2020/12/21 09:31:41;;;;;;;;;;;8.40;81.20;;;;;;4742715;30;19922;-84
2020/12/21 09:34:22;;;;;;;;;;;8.40;81.20;;;;;;4727327;30;19976;-84
2020/12/21 09:36:48;;;;;;;;;;;8.50;81.20;;;;;;4733213;30;19922;-85
2020/12/21 09:39:13;;;;;;;;;;;8.50;81.20;;;;;;4750334;24;19934;-84
2020/12/21 09:41:42;;;;;;;;;;;8.50;81.10;;;;;;4746579;30;20401;-83
2020/12/21 09:44:08;;;;;;;;;;;8.50;81.20;;;;;;4733986;30;19929;-83
2020/12/21 09:46:33;;;;;;;;;;;8.60;81.30;;;;;;4740574;30;19918;-84
2020/12/21 09:49:20;;;;;;;;;;;8.60;81.30;;;;;;4750213;30;19914;-84
2020/12/21 09:51:49;;;;;;;;;;;8.60;81.30;;;;;;4730752;30;20439;-83
2020/12/21 09:54:15;;;;;;;;;;;8.60;81.50;;;;;;4747495;30;19918;-82
2020/12/21 09:56:40;;;;;;;;;;;8.70;81.50;;;;;;4748678;30;20262;-83
2020/12/21 09:59:06;;;;;;;;;;;8.70;81.70;;;;;;4744892;30;20388;-83
2020/12/21 10:01:31;;;;;;;;;;;8.70;81.80;;;;;;4740850;30;19919;-83
2020/12/21 10:03:57;;;;;;;;;;;8.80;81.80;;;;;;4744323;30;20015;-83
2020/12/21 10:06:22;;;;;;;;;;;8.70;81.80;;;;;;4752322;30;20393;-83
2020/12/21 10:08:47;;;;;;;;;;;8.80;81.80;;;;;;4751254;30;20044;-82
2020/12/21 10:11:16;;;;;;;;;;;8.80;82.30;;;;;;4748260;30;19930;-82
2020/12/21 10:13:41;;;;;;;;;;;8.80;82.40;;;;;;4743867;30;19922;-83
2020/12/21 10:16:07;;;;;;;;;;;8.90;82.30;;;;;;4717840;30;19925;-83
2020/12/21 10:18:32;;;;;;;;;;;8.90;82.20;;;;;;4738774;30;19939;-83
2020/12/21 10:20:58;;;;;;;;;;;8.90;82.30;;;;;;4734001;30;19919;-83
2020/12/21 10:23:23;;;;;;;;;;;9.00;82.40;;;;;;4741630;30;19918;-83
2020/12/21 10:25:49;;;;;;;;;;;9.00;82.40;;;;;;4725817;30;19919;-83
2020/12/21 10:28:15;;;;;;;;;;;9.10;82.40;;;;;;4752681;30;20010;-83
2020/12/21 10:30:40;;;;;;;;;;;9.10;82.30;;;;;;4749906;30;19953;-83
2020/12/21 10:33:06;;;;;;;;;;;9.10;82.60;;;;;;4749738;30;19918;-86
2020/12/21 10:35:31;;;;;;;;;;;9.20;82.50;;;;;;4749342;30;19926;-86
2020/12/21 10:37:57;;;;;;;;;;;9.20;82.50;;;;;;4720762;30;19929;-85
2020/12/21 10:40:23;;;;;;;;;;;9.20;82.50;;;;;;4744105;30;20008;-86
2020/12/21 10:42:48;;;;;;;;;;;9.20;82.40;;;;;;4752537;30;19944;-82
2020/12/21 10:45:14;;;;;;;;;;;9.30;82.60;;;;;;4752790;30;19922;-83
2020/12/21 10:47:39;;;;;;;;;;;9.30;82.50;;;;;;4739286;30;19968;-83
2020/12/21 10:50:05;;;;;;;;;;;9.30;82.50;;;;;;4740361;30;19945;-82
2020/12/21 10:52:30;;;;;;;;;;;9.40;82.40;;;;;;4738871;30;19939;-82
2020/12/21 10:54:56;;;;;;;;;;;9.40;82.30;;;;;;4739249;30;19918;-83
2020/12/21 10:57:21;;;;;;;;;;;9.40;82.40;;;;;;4729165;30;20377;-83
2020/12/21 10:59:47;;;;;;;;;;;9.50;82.50;;;;;;4736092;30;20361;-83
2020/12/21 11:02:13;;;;;;;;;;;9.50;82.60;;;;;;4720552;30;19925;-84
2020/12/21 11:04:38;;;;;;;;;;;9.50;82.80;;;;;;4744685;30;20290;-85
2020/12/21 11:07:07;;;;;;;;;;;9.50;82.80;;;;;;4751468;30;20380;-84
2020/12/21 11:12:24;;;;;;;;;;;9.60;82.70;;;;;;4751077;30;20075;-84
2020/12/21 11:14:50;;;;;;;;;;;9.60;82.70;;;;;;4755556;30;20009;-85
2020/12/21 11:17:16;;;;;;;;;;;9.60;82.50;;;;;;4754696;30;20020;-84
2020/12/21 11:19:41;;;;;;;;;;;9.70;82.50;;;;;;4741207;30;19925;-84
2020/12/21 11:22:07;;;;;;;;;;;9.70;82.50;;;;;;4755754;30;20377;-84
2020/12/21 11:24:32;;;;;;;;;;;9.70;82.50;;;;;;4740061;30;20741;-84
2020/12/21 11:26:59;;;;;;;;;;;9.70;82.50;;;;;;4739707;30;20025;-84
2020/12/21 11:29:24;;;;;;;;;;;9.70;82.60;;;;;;4755517;30;19952;-85
2020/12/21 11:31:52;;;;;;;;;;;9.80;82.50;;;;;;4755029;30;19922;-84
2020/12/21 11:34:17;;;;;;;;;;;9.80;82.40;;;;;;4770416;30;19917;-85
2020/12/21 11:36:46;;;;;;;;;;;9.80;82.40;;;;;;4755025;30;20296;-85
2020/12/21 11:39:12;;;;;;;;;;;9.90;82.40;;;;;;4770735;30;20016;-85
2020/12/21 11:41:38;;;;;;;;;;;9.90;82.30;;;;;;4752990;30;20017;-84
2020/12/21 11:44:03;;;;;;;;;;;9.90;82.30;;;;;;4759882;30;19929;-85
2020/12/21 11:46:29;;;;;;;;;;;9.90;82.20;;;;;;4753934;30;20390;-86
2020/12/21 11:48:55;;;;;;;;;;;10.00;82.50;;;;;;4723218;30;20376;-85
2020/12/21 11:51:20;;;;;;;;;;;10.00;82.10;;;;;;4736969;30;19930;-85
2020/12/21 11:53:46;;;;;;;;;;;10.00;82.10;;;;;;4753444;30;19914;-85
2020/12/21 11:56:15;;;;;;;;;;;10.00;82.00;;;;;;4728827;30;19918;-85
2020/12/21 11:58:40;;;;;;;;;;;10.10;82.00;;;;;;4769420;30;19928;-85
2020/12/21 12:01:06;;;;;;;;;;;10.10;82.00;;;;;;4740110;30;19922;-85
2020/12/21 12:03:31;;;;;;;;;;;10.10;81.90;;;;;;4754606;30;19918;-85
2020/12/21 12:05:57;;;;;;;;;;;10.10;81.90;;;;;;4754017;30;20395;-84
2020/12/21 12:08:23;;;;;;;;;;;10.10;81.90;;;;;;4753859;30;19922;-85
2020/12/21 12:10:48;;;;;;;;;;;10.10;82.50;;;;;;4739728;30;19948;-84
2020/12/21 12:13:14;;;;;;;;;;;10.10;81.90;;;;;;4723952;30;19933;-84
2020/12/21 12:15:40;;;;;;;;;;;10.20;81.90;;;;;;4737244;30;19939;-85
2020/12/21 12:18:06;;;;;;;;;;;10.20;81.90;;;;;;4732099;30;19933;-85
2020/12/21 12:20:31;;;;;;;;;;;10.20;82.00;;;;;;4757689;30;19914;-84
2020/12/21 12:22:56;;;;;;;;;;;10.20;81.90;;;;;;4740071;30;20012;-85
2020/12/21 12:25:22;;;;;;;;;;;10.20;82.00;;;;;;4736846;30;20009;-85
2020/12/21 12:27:47;;;;;;;;;;;10.30;82.10;;;;;;4754923;30;20284;-85
2020/12/21 12:30:13;;;;;;;;;;;10.30;82.00;;;;;;4737149;30;19926;-85
2020/12/21 12:32:38;;;;;;;;;;;10.30;82.20;;;;;;4726180;30;19929;-85
2020/12/21 12:35:04;;;;;;;;;;;10.30;82.10;;;;;;4739986;30;19973;-85
2020/12/21 12:37:30;;;;;;;;;;;10.30;82.10;;;;;;4739947;30;19918;-83
2020/12/21 12:39:55;;;;;;;;;;;10.30;82.10;;;;;;4750174;30;19969;-83
2020/12/21 12:42:30;;;;;;;;;;;10.30;82.00;;;;;;4751184;30;19929;-83
2020/12/21 12:44:55;;;;;;;;;;;10.30;82.00;;;;;;4736104;30;19923;-83
2020/12/21 12:47:21;;;;;;;;;;;10.30;82.00;;;;;;4749997;30;19929;-84
2020/12/21 12:49:49;;;;;;;;;;;10.30;82.10;;;;;;4751181;30;19929;-84
2020/12/21 12:52:28;;;;;;;;;;;;;;;;;;;;;
2020/12/21 12:54:54;;;;;;;;;;;10.30;82.10;;;;;;4753171;30;19914;-84
2020/12/21 12:57:20;;;;;;;;;;;10.30;82.10;;;;;;4751300;30;20004;-83
2020/12/21 12:59:45;;;;;;;;;;;10.40;82.10;;;;;;4752622;30;20378;-84
2020/12/21 13:02:11;;;;;;;;;;;10.30;82.10;;;;;;4735614;30;19926;-83
2020/12/21 13:04:37;;;;;;;;;;;10.30;82.20;;;;;;4736547;30;20066;-84
2020/12/21 13:07:02;;;;;;;;;;;10.30;82.20;;;;;;4752639;30;20021;-84
2020/12/21 13:09:28;;;;;;;;;;;10.30;82.40;;;;;;4747874;30;20259;-84
2020/12/21 13:11:53;;;;;;;;;;;10.40;82.30;;;;;;4719966;30;20028;-84
2020/12/21 13:14:19;;;;;;;;;;;10.30;82.20;;;;;;4719746;30;19923;-84
2020/12/21 13:16:45;;;;;;;;;;;10.40;82.30;;;;;;4732927;30;19968;-84
2020/12/21 13:19:11;;;;;;;;;;;10.40;82.30;;;;;;4733400;30;19918;-84
2020/12/21 13:21:37;;;;;;;;;;;10.40;82.30;;;;;;4729480;30;19918;-83
2020/12/21 13:24:03;;;;;;;;;;;10.40;82.40;;;;;;4751284;30;19983;-84
2020/12/21 13:26:31;;;;;;;;;;;10.30;82.40;;;;;;4750430;30;19919;-84
2020/12/21 13:28:57;;;;;;;;;;;10.30;82.40;;;;;;4734824;30;19966;-83
2020/12/21 13:31:23;;;;;;;;;;;10.30;82.40;;;;;;4742080;30;19977;-83
2020/12/21 13:33:49;;;;;;;;;;;10.30;82.50;;;;;;4733090;30;19918;-84
2020/12/21 13:36:15;;;;;;;;;;;10.30;82.50;;;;;;4733779;30;20379;-83
2020/12/21 13:38:43;;;;;;;;;;;10.30;82.50;;;;;;4732180;30;19933;-84
2020/12/21 13:41:09;;;;;;;;;;;10.30;82.50;;;;;;4733115;30;19976;-83
2020/12/21 13:43:51;;;;;;;;;;;10.30;82.60;;;;;;4729475;30;20013;-85
2020/12/21 13:46:23;;;;;;;;;;;10.30;82.60;;;;;;4719558;30;20054;-85
2020/12/21 13:48:52;;;;;;;;;;;10.30;82.80;;;;;;4732916;30;20036;-85
2020/12/21 13:51:44;;;;;;;;;;;10.30;82.90;;;;;;4748207;30;19926;-85
2020/12/21 13:54:09;;;;;;;;;;;10.30;82.90;;;;;;4734831;30;19946;-85
2020/12/21 13:56:35;;;;;;;;;;;10.30;82.90;;;;;;4735476;30;19981;-85
2020/12/21 13:59:09;;;;;;;;;;;10.30;83.10;;;;;;4741410;30;19923;-85
2020/12/21 14:01:35;;;;;;;;;;;10.30;83.10;;;;;;4749471;30;20369;-84
2020/12/21 14:04:01;;;;;;;;;;;10.20;83.00;;;;;;4750046;30;20361;-85
2020/12/21 14:06:26;;;;;;;;;;;10.30;83.10;;;;;;4750403;30;20438;-85
2020/12/21 14:08:58;;;;;;;;;;;10.30;83.10;;;;;;4749060;30;19939;-85
2020/12/21 14:11:24;;;;;;;;;;;10.30;83.10;;;;;;4749852;30;19918;-85
2020/12/21 14:13:50;;;;;;;;;;;10.30;83.00;;;;;;4751202;30;19925;-82
2020/12/21 14:16:16;;;;;;;;;;;10.30;83.00;;;;;;4749649;30;19918;-84
2020/12/21 14:18:45;;;;;;;;;;;10.30;83.10;;;;;;4748656;30;19933;-86
2020/12/21 14:21:11;;;;;;;;;;;10.30;83.10;;;;;;4734904;30;19922;-82
2020/12/21 14:23:40;;;;;;;;;;;10.30;83.10;;;;;;4744106;30;19922;-82
2020/12/21 14:26:06;;;;;;;;;;;10.20;83.20;;;;;;4731958;30;19915;-82
2020/12/21 14:28:32;;;;;;;;;;;10.20;83.10;;;;;;4716839;30;19985;-82
2020/12/21 14:30:57;;;;;;;;;;;10.30;83.10;;;;;;4717867;30;20393;-85
2020/12/21 14:33:23;;;;;;;;;;;10.20;83.10;;;;;;4732146;30;20001;-84
2020/12/21 14:35:49;;;;;;;;;;;10.20;83.10;;;;;;4733734;30;19945;-85